sensor_id;sensor_type;location;lat;lon;timestamp;temperature;humidity
65239;SHT30;51827;51.186;6.926;2024-03-08T00:00:42;18.86;48.91
65239;SHT30;51827;51.186;6.926;2024-03-08T00:01:42;18.84;48.93
65239;SHT30;51827;51.186;6.926;2024-03-08T00:02:42;18.84;48.91
65239;SHT30;51827;51.186;6.926;2024-03-08T00:03:42;18.85;48.90
65239;SHT30;51827;51.186;6.926;2024-03-08T00:04:43;18.86;48.91
65239;SHT30;51827;51.186;6.926;2024-03-08T00:05:43;18.84;48.93
65239;SHT30;51827;51.186;6.926;2024-03-08T00:06:43;18.85;48.90
65239;SHT30;51827;51.186;6.926;2024-03-08T00:07:43;18.84;48.86
65239;SHT30;51827;51.186;6.926;2024-03-08T00:08:44;18.86;48.89
65239;SHT30;51827;51.186;6.926;2024-03-08T00:09:44;18.85;48.88
65239;SHT30;51827;51.186;6.926;2024-03-08T00:10:44;18.84;48.90
65239;SHT30;51827;51.186;6.926;2024-03-08T00:11:44;18.85;48.90
65239;SHT30;51827;51.186;6.926;2024-03-08T00:12:45;18.86;48.88
65239;SHT30;51827;51.186;6.926;2024-03-08T00:13:45;18.85;48.86
65239;SHT30;51827;51.186;6.926;2024-03-08T00:14:45;18.84;48.86
65239;SHT30;51827;51.186;6.926;2024-03-08T00:15:46;18.84;48.90
65239;SHT30;51827;51.186;6.926;2024-03-08T00:16:47;18.81;48.86
65239;SHT30;51827;51.186;6.926;2024-03-08T00:17:47;18.82;48.84
65239;SHT30;51827;51.186;6.926;2024-03-08T00:18:47;18.85;48.86
65239;SHT30;51827;51.186;6.926;2024-03-08T00:19:48;18.84;48.85
65239;SHT30;51827;51.186;6.926;2024-03-08T00:20:49;18.86;48.86
65239;SHT30;51827;51.186;6.926;2024-03-08T00:21:49;18.85;48.88
65239;SHT30;51827;51.186;6.926;2024-03-08T00:22:49;18.84;48.90
65239;SHT30;51827;51.186;6.926;2024-03-08T00:23:49;18.84;48.85
65239;SHT30;51827;51.186;6.926;2024-03-08T00:24:50;18.84;48.82
65239;SHT30;51827;51.186;6.926;2024-03-08T00:25:50;18.86;48.82
65239;SHT30;51827;51.186;6.926;2024-03-08T00:26:50;18.85;48.80
65239;SHT30;51827;51.186;6.926;2024-03-08T00:27:50;18.84;48.79
65239;SHT30;51827;51.186;6.926;2024-03-08T00:28:50;18.84;48.85
65239;SHT30;51827;51.186;6.926;2024-03-08T00:29:51;18.81;48.85
65239;SHT30;51827;51.186;6.926;2024-03-08T00:30:51;18.81;48.80
65239;SHT30;51827;51.186;6.926;2024-03-08T00:31:51;18.81;48.84
65239;SHT30;51827;51.186;6.926;2024-03-08T00:32:51;18.84;48.83
65239;SHT30;51827;51.186;6.926;2024-03-08T00:33:52;18.84;48.78
65239;SHT30;51827;51.186;6.926;2024-03-08T00:34:52;18.81;48.82
65239;SHT30;51827;51.186;6.926;2024-03-08T00:35:53;18.84;48.81
65239;SHT30;51827;51.186;6.926;2024-03-08T00:36:53;18.82;48.85
65239;SHT30;51827;51.186;6.926;2024-03-08T00:37:53;18.81;48.82
65239;SHT30;51827;51.186;6.926;2024-03-08T00:38:53;18.81;48.80
65239;SHT30;51827;51.186;6.926;2024-03-08T00:39:54;18.81;48.78
65239;SHT30;51827;51.186;6.926;2024-03-08T00:40:54;18.82;48.83
65239;SHT30;51827;51.186;6.926;2024-03-08T00:41:54;18.84;48.84
65239;SHT30;51827;51.186;6.926;2024-03-08T00:42:54;18.82;48.83
65239;SHT30;51827;51.186;6.926;2024-03-08T00:43:55;18.81;48.78
65239;SHT30;51827;51.186;6.926;2024-03-08T00:44:55;18.79;48.80
65239;SHT30;51827;51.186;6.926;2024-03-08T00:45:56;18.78;48.78
65239;SHT30;51827;51.186;6.926;2024-03-08T00:46:56;18.79;48.80
65239;SHT30;51827;51.186;6.926;2024-03-08T00:47:56;18.79;48.82
65239;SHT30;51827;51.186;6.926;2024-03-08T00:48:56;18.81;48.79
65239;SHT30;51827;51.186;6.926;2024-03-08T00:49:57;18.79;48.79
65239;SHT30;51827;51.186;6.926;2024-03-08T00:50:57;18.76;48.79
65239;SHT30;51827;51.186;6.926;2024-03-08T00:51:57;18.78;48.77
65239;SHT30;51827;51.186;6.926;2024-03-08T00:52:57;18.81;48.81
65239;SHT30;51827;51.186;6.926;2024-03-08T00:53:58;18.81;48.80
65239;SHT30;51827;51.186;6.926;2024-03-08T00:54:58;18.78;48.78
65239;SHT30;51827;51.186;6.926;2024-03-08T00:55:58;18.79;48.78
65239;SHT30;51827;51.186;6.926;2024-03-08T00:56:58;18.78;48.79
65239;SHT30;51827;51.186;6.926;2024-03-08T00:57:59;18.79;48.78
65239;SHT30;51827;51.186;6.926;2024-03-08T00:58:59;18.79;48.76
65239;SHT30;51827;51.186;6.926;2024-03-08T00:59:59;18.81;48.75
65239;SHT30;51827;51.186;6.926;2024-03-08T01:00:59;18.79;48.74
65239;SHT30;51827;51.186;6.926;2024-03-08T01:02:00;18.78;48.78
65239;SHT30;51827;51.186;6.926;2024-03-08T01:03:01;18.78;48.76
65239;SHT30;51827;51.186;6.926;2024-03-08T01:04:01;18.78;48.80
65239;SHT30;51827;51.186;6.926;2024-03-08T01:05:02;18.79;48.78
65239;SHT30;51827;51.186;6.926;2024-03-08T01:06:02;18.81;48.78
65239;SHT30;51827;51.186;6.926;2024-03-08T01:07:02;18.78;48.76
65239;SHT30;51827;51.186;6.926;2024-03-08T01:08:03;18.78;48.79
65239;SHT30;51827;51.186;6.926;2024-03-08T01:09:03;18.78;48.76
65239;SHT30;51827;51.186;6.926;2024-03-08T01:10:04;18.78;48.80
65239;SHT30;51827;51.186;6.926;2024-03-08T01:11:05;18.79;48.83
65239;SHT30;51827;51.186;6.926;2024-03-08T01:12:05;18.78;48.80
65239;SHT30;51827;51.186;6.926;2024-03-08T01:13:05;18.78;48.82
65239;SHT30;51827;51.186;6.926;2024-03-08T01:14:06;18.76;48.80
65239;SHT30;51827;51.186;6.926;2024-03-08T01:15:06;18.76;48.81
65239;SHT30;51827;51.186;6.926;2024-03-08T01:16:06;18.78;48.79
65239;SHT30;51827;51.186;6.926;2024-03-08T01:17:07;18.75;48.80
65239;SHT30;51827;51.186;6.926;2024-03-08T01:18:07;18.78;48.81
65239;SHT30;51827;51.186;6.926;2024-03-08T01:19:07;18.76;48.83
65239;SHT30;51827;51.186;6.926;2024-03-08T01:20:08;18.75;48.78
65239;SHT30;51827;51.186;6.926;2024-03-08T01:21:08;18.81;48.85
65239;SHT30;51827;51.186;6.926;2024-03-08T01:22:08;18.76;48.85
65239;SHT30;51827;51.186;6.926;2024-03-08T01:23:09;18.76;48.84
65239;SHT30;51827;51.186;6.926;2024-03-08T01:24:09;18.75;48.83
65239;SHT30;51827;51.186;6.926;2024-03-08T01:25:09;18.76;48.81
65239;SHT30;51827;51.186;6.926;2024-03-08T01:26:09;18.76;48.82
65239;SHT30;51827;51.186;6.926;2024-03-08T01:27:10;18.75;48.83
65239;SHT30;51827;51.186;6.926;2024-03-08T01:28:10;18.75;48.87
65239;SHT30;51827;51.186;6.926;2024-03-08T01:29:10;18.75;48.84
65239;SHT30;51827;51.186;6.926;2024-03-08T01:30:10;18.78;48.82
65239;SHT30;51827;51.186;6.926;2024-03-08T01:31:11;18.76;48.87
65239;SHT30;51827;51.186;6.926;2024-03-08T01:32:11;18.75;48.76
65239;SHT30;51827;51.186;6.926;2024-03-08T01:33:11;18.78;48.81
65239;SHT30;51827;51.186;6.926;2024-03-08T01:34:11;18.78;48.77
65239;SHT30;51827;51.186;6.926;2024-03-08T01:35:12;18.76;48.76
65239;SHT30;51827;51.186;6.926;2024-03-08T01:36:12;18.75;48.71
65239;SHT30;51827;51.186;6.926;2024-03-08T01:37:12;18.76;48.77
65239;SHT30;51827;51.186;6.926;2024-03-08T01:38:12;18.75;48.76
65239;SHT30;51827;51.186;6.926;2024-03-08T01:39:12;18.76;48.78
65239;SHT30;51827;51.186;6.926;2024-03-08T01:40:13;18.76;48.78
65239;SHT30;51827;51.186;6.926;2024-03-08T01:41:13;18.73;48.81
65239;SHT30;51827;51.186;6.926;2024-03-08T01:42:13;18.76;48.77
65239;SHT30;51827;51.186;6.926;2024-03-08T01:43:27;18.78;48.86
65239;SHT30;51827;51.186;6.926;2024-03-08T01:44:28;18.75;48.85
65239;SHT30;51827;51.186;6.926;2024-03-08T01:45:28;18.76;48.84
65239;SHT30;51827;51.186;6.926;2024-03-08T01:46:28;18.75;48.90
65239;SHT30;51827;51.186;6.926;2024-03-08T01:47:29;18.75;48.85
65239;SHT30;51827;51.186;6.926;2024-03-08T01:48:29;18.75;48.88
65239;SHT30;51827;51.186;6.926;2024-03-08T01:49:30;18.72;48.90
65239;SHT30;51827;51.186;6.926;2024-03-08T01:50:31;18.72;48.89
65239;SHT30;51827;51.186;6.926;2024-03-08T01:51:31;18.73;48.89
65239;SHT30;51827;51.186;6.926;2024-03-08T01:52:33;18.73;48.91
65239;SHT30;51827;51.186;6.926;2024-03-08T01:53:33;18.76;48.91
65239;SHT30;51827;51.186;6.926;2024-03-08T01:54:34;18.76;48.88
65239;SHT30;51827;51.186;6.926;2024-03-08T01:55:36;18.76;48.94
65239;SHT30;51827;51.186;6.926;2024-03-08T01:56:37;18.76;48.90
65239;SHT30;51827;51.186;6.926;2024-03-08T01:57:37;18.76;48.94
65239;SHT30;51827;51.186;6.926;2024-03-08T01:58:38;18.76;48.92
65239;SHT30;51827;51.186;6.926;2024-03-08T01:59:39;18.75;48.90
65239;SHT30;51827;51.186;6.926;2024-03-08T02:00:40;18.75;48.96
65239;SHT30;51827;51.186;6.926;2024-03-08T02:01:41;18.73;48.94
65239;SHT30;51827;51.186;6.926;2024-03-08T02:02:42;18.72;49.02
65239;SHT30;51827;51.186;6.926;2024-03-08T02:03:42;18.73;48.95
65239;SHT30;51827;51.186;6.926;2024-03-08T02:04:44;18.76;48.95
65239;SHT30;51827;51.186;6.926;2024-03-08T02:05:44;18.73;48.96
65239;SHT30;51827;51.186;6.926;2024-03-08T02:06:44;18.75;49.00
65239;SHT30;51827;51.186;6.926;2024-03-08T02:07:45;18.72;48.95
65239;SHT30;51827;51.186;6.926;2024-03-08T02:08:46;18.75;49.00
65239;SHT30;51827;51.186;6.926;2024-03-08T02:09:46;18.75;48.92
65239;SHT30;51827;51.186;6.926;2024-03-08T02:10:46;18.73;48.97
65239;SHT30;51827;51.186;6.926;2024-03-08T02:11:47;18.78;48.97
65239;SHT30;51827;51.186;6.926;2024-03-08T02:12:47;18.72;48.97
65239;SHT30;51827;51.186;6.926;2024-03-08T02:13:47;18.75;49.00
65239;SHT30;51827;51.186;6.926;2024-03-08T02:14:47;18.75;49.01
65239;SHT30;51827;51.186;6.926;2024-03-08T02:15:55;18.75;49.00
65239;SHT30;51827;51.186;6.926;2024-03-08T02:17:00;18.75;48.94
65239;SHT30;51827;51.186;6.926;2024-03-08T02:18:00;18.75;48.99
65239;SHT30;51827;51.186;6.926;2024-03-08T02:19:00;18.76;48.94
65239;SHT30;51827;51.186;6.926;2024-03-08T02:20:01;18.75;49.02
65239;SHT30;51827;51.186;6.926;2024-03-08T02:21:02;18.73;49.01
65239;SHT30;51827;51.186;6.926;2024-03-08T02:22:03;18.73;49.02
65239;SHT30;51827;51.186;6.926;2024-03-08T02:23:04;18.73;49.01
65239;SHT30;51827;51.186;6.926;2024-03-08T02:24:04;18.73;49.00
65239;SHT30;51827;51.186;6.926;2024-03-08T02:25:05;18.73;48.96
65239;SHT30;51827;51.186;6.926;2024-03-08T02:26:06;18.75;48.99
65239;SHT30;51827;51.186;6.926;2024-03-08T02:27:06;18.75;48.97
65239;SHT30;51827;51.186;6.926;2024-03-08T02:28:06;18.73;49.02
65239;SHT30;51827;51.186;6.926;2024-03-08T02:29:07;18.72;48.97
65239;SHT30;51827;51.186;6.926;2024-03-08T02:30:07;18.75;49.01
65239;SHT30;51827;51.186;6.926;2024-03-08T02:31:08;18.72;48.97
65239;SHT30;51827;51.186;6.926;2024-03-08T02:32:08;18.73;48.98
65239;SHT30;51827;51.186;6.926;2024-03-08T02:33:08;18.73;49.03
65239;SHT30;51827;51.186;6.926;2024-03-08T02:34:09;18.73;49.03
65239;SHT30;51827;51.186;6.926;2024-03-08T02:35:09;18.73;49.00
65239;SHT30;51827;51.186;6.926;2024-03-08T02:36:09;18.73;49.01
65239;SHT30;51827;51.186;6.926;2024-03-08T02:37:09;18.73;49.00
65239;SHT30;51827;51.186;6.926;2024-03-08T02:38:10;18.73;48.99
65239;SHT30;51827;51.186;6.926;2024-03-08T02:39:10;18.73;49.08
65239;SHT30;51827;51.186;6.926;2024-03-08T02:40:10;18.73;49.06
65239;SHT30;51827;51.186;6.926;2024-03-08T02:41:11;18.76;49.04
65239;SHT30;51827;51.186;6.926;2024-03-08T02:42:11;18.73;49.02
65239;SHT30;51827;51.186;6.926;2024-03-08T02:43:12;18.75;49.02
65239;SHT30;51827;51.186;6.926;2024-03-08T02:44:13;18.73;49.00
65239;SHT30;51827;51.186;6.926;2024-03-08T02:45:13;18.73;49.01
65239;SHT30;51827;51.186;6.926;2024-03-08T02:46:13;18.73;48.99
65239;SHT30;51827;51.186;6.926;2024-03-08T02:47:14;18.73;49.03
65239;SHT30;51827;51.186;6.926;2024-03-08T02:48:14;18.69;49.01
65239;SHT30;51827;51.186;6.926;2024-03-08T02:49:15;18.73;49.04
65239;SHT30;51827;51.186;6.926;2024-03-08T02:50:15;18.72;48.97
65239;SHT30;51827;51.186;6.926;2024-03-08T02:51:16;18.73;49.02
65239;SHT30;51827;51.186;6.926;2024-03-08T02:52:16;18.72;49.03
65239;SHT30;51827;51.186;6.926;2024-03-08T02:53:16;18.72;49.02
65239;SHT30;51827;51.186;6.926;2024-03-08T02:54:17;18.73;49.02
65239;SHT30;51827;51.186;6.926;2024-03-08T02:55:17;18.75;49.02
65239;SHT30;51827;51.186;6.926;2024-03-08T02:56:17;18.72;48.97
65239;SHT30;51827;51.186;6.926;2024-03-08T02:57:17;18.73;49.00
65239;SHT30;51827;51.186;6.926;2024-03-08T02:58:18;18.72;48.94
65239;SHT30;51827;51.186;6.926;2024-03-08T02:59:18;18.73;48.97
65239;SHT30;51827;51.186;6.926;2024-03-08T03:00:18;18.72;48.95
65239;SHT30;51827;51.186;6.926;2024-03-08T03:01:19;18.72;49.00
65239;SHT30;51827;51.186;6.926;2024-03-08T03:02:19;18.73;49.00
65239;SHT30;51827;51.186;6.926;2024-03-08T03:03:19;18.73;48.94
65239;SHT30;51827;51.186;6.926;2024-03-08T03:04:19;18.72;49.01
65239;SHT30;51827;51.186;6.926;2024-03-08T03:05:20;18.72;48.98
65239;SHT30;51827;51.186;6.926;2024-03-08T03:06:20;18.75;49.00
65239;SHT30;51827;51.186;6.926;2024-03-08T03:07:21;18.72;49.01
65239;SHT30;51827;51.186;6.926;2024-03-08T03:08:21;18.73;48.98
65239;SHT30;51827;51.186;6.926;2024-03-08T03:09:22;18.72;48.97
65239;SHT30;51827;51.186;6.926;2024-03-08T03:10:22;18.73;49.01
65239;SHT30;51827;51.186;6.926;2024-03-08T03:11:23;18.72;48.97
65239;SHT30;51827;51.186;6.926;2024-03-08T03:12:23;18.73;48.94
65239;SHT30;51827;51.186;6.926;2024-03-08T03:13:23;18.75;48.97
65239;SHT30;51827;51.186;6.926;2024-03-08T03:14:23;18.72;48.96
65239;SHT30;51827;51.186;6.926;2024-03-08T03:15:24;18.71;48.96
65239;SHT30;51827;51.186;6.926;2024-03-08T03:16:24;18.73;49.00
65239;SHT30;51827;51.186;6.926;2024-03-08T03:17:24;18.71;48.97
65239;SHT30;51827;51.186;6.926;2024-03-08T03:18:24;18.73;48.94
65239;SHT30;51827;51.186;6.926;2024-03-08T03:19:25;18.71;48.96
65239;SHT30;51827;51.186;6.926;2024-03-08T03:20:25;18.72;48.99
65239;SHT30;51827;51.186;6.926;2024-03-08T03:21:28;18.71;48.94
65239;SHT30;51827;51.186;6.926;2024-03-08T03:22:28;18.72;48.97
65239;SHT30;51827;51.186;6.926;2024-03-08T03:23:28;18.72;48.95
65239;SHT30;51827;51.186;6.926;2024-03-08T03:24:29;18.73;48.99
65239;SHT30;51827;51.186;6.926;2024-03-08T03:25:29;18.71;48.96
65239;SHT30;51827;51.186;6.926;2024-03-08T03:26:29;18.72;48.97
65239;SHT30;51827;51.186;6.926;2024-03-08T03:27:30;18.73;48.99
65239;SHT30;51827;51.186;6.926;2024-03-08T03:28:30;18.72;48.98
65239;SHT30;51827;51.186;6.926;2024-03-08T03:29:30;18.72;49.00
65239;SHT30;51827;51.186;6.926;2024-03-08T03:30:30;18.71;48.98
65239;SHT30;51827;51.186;6.926;2024-03-08T03:31:31;18.72;48.99
65239;SHT30;51827;51.186;6.926;2024-03-08T03:32:31;18.72;49.03
65239;SHT30;51827;51.186;6.926;2024-03-08T03:33:31;18.71;48.97
65239;SHT30;51827;51.186;6.926;2024-03-08T03:34:31;18.69;49.00
65239;SHT30;51827;51.186;6.926;2024-03-08T03:35:32;18.69;48.96
65239;SHT30;51827;51.186;6.926;2024-03-08T03:36:32;18.71;49.03
65239;SHT30;51827;51.186;6.926;2024-03-08T03:37:32;18.72;49.01
65239;SHT30;51827;51.186;6.926;2024-03-08T03:38:33;18.72;48.97
65239;SHT30;51827;51.186;6.926;2024-03-08T03:39:33;18.69;48.99
65239;SHT30;51827;51.186;6.926;2024-03-08T03:40:34;18.71;48.98
65239;SHT30;51827;51.186;6.926;2024-03-08T03:41:34;18.73;48.95
65239;SHT30;51827;51.186;6.926;2024-03-08T03:42:34;18.71;48.97
65239;SHT30;51827;51.186;6.926;2024-03-08T03:43:35;18.71;48.99
65239;SHT30;51827;51.186;6.926;2024-03-08T03:44:35;18.71;48.98
65239;SHT30;51827;51.186;6.926;2024-03-08T03:45:35;18.69;48.97
65239;SHT30;51827;51.186;6.926;2024-03-08T03:46:35;18.71;48.99
65239;SHT30;51827;51.186;6.926;2024-03-08T03:47:36;18.69;48.98
65239;SHT30;51827;51.186;6.926;2024-03-08T03:48:36;18.69;48.98
65239;SHT30;51827;51.186;6.926;2024-03-08T03:49:36;18.71;48.95
65239;SHT30;51827;51.186;6.926;2024-03-08T03:50:37;18.71;48.99
65239;SHT30;51827;51.186;6.926;2024-03-08T03:51:37;18.71;48.93
65239;SHT30;51827;51.186;6.926;2024-03-08T03:52:37;18.69;48.95
65239;SHT30;51827;51.186;6.926;2024-03-08T03:53:37;18.71;48.92
65239;SHT30;51827;51.186;6.926;2024-03-08T03:54:38;18.71;48.91
65239;SHT30;51827;51.186;6.926;2024-03-08T03:56:40;18.72;48.94
65239;SHT30;51827;51.186;6.926;2024-03-08T03:57:41;18.69;48.89
65239;SHT30;51827;51.186;6.926;2024-03-08T03:58:41;18.73;48.92
65239;SHT30;51827;51.186;6.926;2024-03-08T03:59:41;18.69;48.91
65239;SHT30;51827;51.186;6.926;2024-03-08T04:00:41;18.68;48.90
65239;SHT30;51827;51.186;6.926;2024-03-08T04:01:42;18.71;48.90
65239;SHT30;51827;51.186;6.926;2024-03-08T04:02:42;18.68;48.92
65239;SHT30;51827;51.186;6.926;2024-03-08T04:03:43;18.71;48.92
65239;SHT30;51827;51.186;6.926;2024-03-08T04:04:43;18.69;48.95
65239;SHT30;51827;51.186;6.926;2024-03-08T04:05:43;18.69;48.89
65239;SHT30;51827;51.186;6.926;2024-03-08T04:06:43;18.69;48.91
65239;SHT30;51827;51.186;6.926;2024-03-08T04:07:44;18.69;48.86
65239;SHT30;51827;51.186;6.926;2024-03-08T04:08:44;18.69;48.87
65239;SHT30;51827;51.186;6.926;2024-03-08T04:09:44;18.69;48.86
65239;SHT30;51827;51.186;6.926;2024-03-08T04:10:44;18.68;48.87
65239;SHT30;51827;51.186;6.926;2024-03-08T04:11:45;18.68;48.88
65239;SHT30;51827;51.186;6.926;2024-03-08T04:12:45;18.71;48.90
65239;SHT30;51827;51.186;6.926;2024-03-08T04:13:45;18.69;48.85
65239;SHT30;51827;51.186;6.926;2024-03-08T04:14:46;18.71;48.86
65239;SHT30;51827;51.186;6.926;2024-03-08T04:15:46;18.69;48.82
65239;SHT30;51827;51.186;6.926;2024-03-08T04:16:46;18.69;48.87
65239;SHT30;51827;51.186;6.926;2024-03-08T04:17:46;18.65;48.87
65239;SHT30;51827;51.186;6.926;2024-03-08T04:18:47;18.68;48.90
65239;SHT30;51827;51.186;6.926;2024-03-08T04:19:47;18.66;48.86
65239;SHT30;51827;51.186;6.926;2024-03-08T04:20:47;18.62;48.81
65239;SHT30;51827;51.186;6.926;2024-03-08T04:21:47;18.65;48.90
65239;SHT30;51827;51.186;6.926;2024-03-08T04:22:48;18.66;48.95
65239;SHT30;51827;51.186;6.926;2024-03-08T04:23:48;18.69;48.93
65239;SHT30;51827;51.186;6.926;2024-03-08T04:24:48;18.68;48.91
65239;SHT30;51827;51.186;6.926;2024-03-08T04:25:48;18.68;48.93
65239;SHT30;51827;51.186;6.926;2024-03-08T04:26:49;18.71;48.88
65239;SHT30;51827;51.186;6.926;2024-03-08T04:27:49;18.69;48.87
65239;SHT30;51827;51.186;6.926;2024-03-08T04:28:49;18.69;48.85
65239;SHT30;51827;51.186;6.926;2024-03-08T04:29:49;18.68;48.77
65239;SHT30;51827;51.186;6.926;2024-03-08T04:30:50;18.68;48.76
65239;SHT30;51827;51.186;6.926;2024-03-08T04:31:50;18.71;48.79
65239;SHT30;51827;51.186;6.926;2024-03-08T04:32:50;18.71;48.79
65239;SHT30;51827;51.186;6.926;2024-03-08T04:33:50;18.71;48.75
65239;SHT30;51827;51.186;6.926;2024-03-08T04:34:51;18.68;48.73
65239;SHT30;51827;51.186;6.926;2024-03-08T04:35:51;18.69;48.79
65239;SHT30;51827;51.186;6.926;2024-03-08T04:36:51;18.68;48.75
65239;SHT30;51827;51.186;6.926;2024-03-08T04:37:51;18.68;48.74
65239;SHT30;51827;51.186;6.926;2024-03-08T04:38:52;18.71;48.72
65239;SHT30;51827;51.186;6.926;2024-03-08T04:39:52;18.72;48.72
65239;SHT30;51827;51.186;6.926;2024-03-08T04:40:52;18.69;48.78
65239;SHT30;51827;51.186;6.926;2024-03-08T04:41:52;18.71;48.74
65239;SHT30;51827;51.186;6.926;2024-03-08T04:42:53;18.71;48.78
65239;SHT30;51827;51.186;6.926;2024-03-08T04:43:53;18.68;48.75
65239;SHT30;51827;51.186;6.926;2024-03-08T04:44:53;18.71;48.75
65239;SHT30;51827;51.186;6.926;2024-03-08T04:45:54;18.66;48.78
65239;SHT30;51827;51.186;6.926;2024-03-08T04:46:54;18.69;48.68
65239;SHT30;51827;51.186;6.926;2024-03-08T04:47:54;18.69;48.70
65239;SHT30;51827;51.186;6.926;2024-03-08T04:48:55;18.69;48.69
65239;SHT30;51827;51.186;6.926;2024-03-08T04:49:55;18.68;48.69
65239;SHT30;51827;51.186;6.926;2024-03-08T04:50:55;18.68;48.73
65239;SHT30;51827;51.186;6.926;2024-03-08T04:51:55;18.66;48.71
65239;SHT30;51827;51.186;6.926;2024-03-08T04:52:56;18.68;48.69
65239;SHT30;51827;51.186;6.926;2024-03-08T04:53:56;18.68;48.72
65239;SHT30;51827;51.186;6.926;2024-03-08T04:54:56;18.69;48.72
65239;SHT30;51827;51.186;6.926;2024-03-08T04:55:56;18.68;48.69
65239;SHT30;51827;51.186;6.926;2024-03-08T04:56:57;18.69;48.73
65239;SHT30;51827;51.186;6.926;2024-03-08T04:57:57;18.68;48.66
65239;SHT30;51827;51.186;6.926;2024-03-08T04:58:57;18.66;48.70
65239;SHT30;51827;51.186;6.926;2024-03-08T04:59:58;18.68;48.70
65239;SHT30;51827;51.186;6.926;2024-03-08T05:00:58;18.71;48.67
65239;SHT30;51827;51.186;6.926;2024-03-08T05:01:58;18.71;48.68
65239;SHT30;51827;51.186;6.926;2024-03-08T05:02:58;18.71;48.65
65239;SHT30;51827;51.186;6.926;2024-03-08T05:03:59;18.69;48.73
65239;SHT30;51827;51.186;6.926;2024-03-08T05:04:59;18.68;48.71
65239;SHT30;51827;51.186;6.926;2024-03-08T05:05:59;18.69;48.64
65239;SHT30;51827;51.186;6.926;2024-03-08T05:06:59;18.72;48.73
65239;SHT30;51827;51.186;6.926;2024-03-08T05:08:00;18.68;48.72
65239;SHT30;51827;51.186;6.926;2024-03-08T05:09:00;18.69;48.74
65239;SHT30;51827;51.186;6.926;2024-03-08T05:10:00;18.68;48.73
65239;SHT30;51827;51.186;6.926;2024-03-08T05:11:01;18.68;48.74
65239;SHT30;51827;51.186;6.926;2024-03-08T05:12:01;18.69;48.74
65239;SHT30;51827;51.186;6.926;2024-03-08T05:13:01;18.69;48.77
65239;SHT30;51827;51.186;6.926;2024-03-08T05:14:01;18.69;48.72
65239;SHT30;51827;51.186;6.926;2024-03-08T05:15:01;18.68;48.74
65239;SHT30;51827;51.186;6.926;2024-03-08T05:16:02;18.68;48.72
65239;SHT30;51827;51.186;6.926;2024-03-08T05:17:02;18.69;48.76
65239;SHT30;51827;51.186;6.926;2024-03-08T05:18:02;18.69;48.70
65239;SHT30;51827;51.186;6.926;2024-03-08T05:19:03;18.69;48.72
65239;SHT30;51827;51.186;6.926;2024-03-08T05:20:03;18.71;48.69
65239;SHT30;51827;51.186;6.926;2024-03-08T05:21:04;18.69;48.73
65239;SHT30;51827;51.186;6.926;2024-03-08T05:22:04;18.69;48.97
65239;SHT30;51827;51.186;6.926;2024-03-08T05:23:04;18.68;49.51
65239;SHT30;51827;51.186;6.926;2024-03-08T05:24:05;18.71;49.41
65239;SHT30;51827;51.186;6.926;2024-03-08T05:25:05;18.69;49.38
65239;SHT30;51827;51.186;6.926;2024-03-08T05:26:06;18.68;49.18
65239;SHT30;51827;51.186;6.926;2024-03-08T05:27:06;18.69;49.15
65239;SHT30;51827;51.186;6.926;2024-03-08T05:28:06;18.71;49.17
65239;SHT30;51827;51.186;6.926;2024-03-08T05:29:07;18.69;49.16
65239;SHT30;51827;51.186;6.926;2024-03-08T05:30:08;18.69;49.16
65239;SHT30;51827;51.186;6.926;2024-03-08T05:31:08;18.71;49.17
65239;SHT30;51827;51.186;6.926;2024-03-08T05:32:08;18.68;49.10
65239;SHT30;51827;51.186;6.926;2024-03-08T05:33:08;18.69;49.47
65239;SHT30;51827;51.186;6.926;2024-03-08T05:34:09;18.68;49.96
65239;SHT30;51827;51.186;6.926;2024-03-08T05:35:09;18.69;50.06
65239;SHT30;51827;51.186;6.926;2024-03-08T05:36:09;18.69;49.99
65239;SHT30;51827;51.186;6.926;2024-03-08T05:37:09;18.69;49.71
65239;SHT30;51827;51.186;6.926;2024-03-08T05:38:10;18.71;49.63
65239;SHT30;51827;51.186;6.926;2024-03-08T05:39:11;18.73;49.56
65239;SHT30;51827;51.186;6.926;2024-03-08T05:40:12;18.71;49.55
65239;SHT30;51827;51.186;6.926;2024-03-08T05:41:12;18.71;49.52
65239;SHT30;51827;51.186;6.926;2024-03-08T05:42:12;18.71;49.47
65239;SHT30;51827;51.186;6.926;2024-03-08T05:43:12;18.71;49.50
65239;SHT30;51827;51.186;6.926;2024-03-08T05:44:13;18.71;49.56
65239;SHT30;51827;51.186;6.926;2024-03-08T05:45:13;18.69;49.39
65239;SHT30;51827;51.186;6.926;2024-03-08T05:46:15;18.69;49.26
65239;SHT30;51827;51.186;6.926;2024-03-08T05:47:16;18.72;49.25
65239;SHT30;51827;51.186;6.926;2024-03-08T05:48:16;18.69;49.20
65239;SHT30;51827;51.186;6.926;2024-03-08T05:49:16;18.69;49.16
65239;SHT30;51827;51.186;6.926;2024-03-08T05:50:17;18.71;49.15
65239;SHT30;51827;51.186;6.926;2024-03-08T05:51:17;18.72;49.05
65239;SHT30;51827;51.186;6.926;2024-03-08T05:52:17;18.69;49.06
65239;SHT30;51827;51.186;6.926;2024-03-08T05:53:17;18.69;48.99
65239;SHT30;51827;51.186;6.926;2024-03-08T05:54:18;18.69;49.33
65239;SHT30;51827;51.186;6.926;2024-03-08T05:55:18;18.71;49.64
65239;SHT30;51827;51.186;6.926;2024-03-08T05:56:19;18.72;49.75
65239;SHT30;51827;51.186;6.926;2024-03-08T05:57:19;18.71;49.80
65239;SHT30;51827;51.186;6.926;2024-03-08T05:58:19;18.72;49.80
65239;SHT30;51827;51.186;6.926;2024-03-08T05:59:19;18.73;49.80
65239;SHT30;51827;51.186;6.926;2024-03-08T06:00:20;18.75;49.81
65239;SHT30;51827;51.186;6.926;2024-03-08T06:01:20;18.76;49.77
65239;SHT30;51827;51.186;6.926;2024-03-08T06:02:20;18.73;49.76
65239;SHT30;51827;51.186;6.926;2024-03-08T06:03:20;18.75;49.71
65239;SHT30;51827;51.186;6.926;2024-03-08T06:04:21;18.75;49.74
65239;SHT30;51827;51.186;6.926;2024-03-08T06:05:21;18.75;49.68
65239;SHT30;51827;51.186;6.926;2024-03-08T06:06:22;18.75;49.72
65239;SHT30;51827;51.186;6.926;2024-03-08T06:07:23;18.78;49.72
65239;SHT30;51827;51.186;6.926;2024-03-08T06:08:23;18.76;49.73
65239;SHT30;51827;51.186;6.926;2024-03-08T06:09:24;18.73;49.71
65239;SHT30;51827;51.186;6.926;2024-03-08T06:10:24;18.78;49.68
65239;SHT30;51827;51.186;6.926;2024-03-08T06:11:25;18.79;49.66
65239;SHT30;51827;51.186;6.926;2024-03-08T06:12:26;18.76;49.66
65239;SHT30;51827;51.186;6.926;2024-03-08T06:13:26;18.76;49.63
65239;SHT30;51827;51.186;6.926;2024-03-08T06:14:26;18.78;49.64
65239;SHT30;51827;51.186;6.926;2024-03-08T06:15:26;18.76;49.66
65239;SHT30;51827;51.186;6.926;2024-03-08T06:16:27;18.76;49.70
65239;SHT30;51827;51.186;6.926;2024-03-08T06:17:27;18.78;49.62
65239;SHT30;51827;51.186;6.926;2024-03-08T06:18:27;18.78;49.64
65239;SHT30;51827;51.186;6.926;2024-03-08T06:19:27;18.79;49.60
65239;SHT30;51827;51.186;6.926;2024-03-08T06:20:28;18.79;49.62
65239;SHT30;51827;51.186;6.926;2024-03-08T06:21:28;18.79;49.58
65239;SHT30;51827;51.186;6.926;2024-03-08T06:22:28;18.79;49.62